Time;durP1;ratioP1;P1;durP2;ratioP2;P2;SDS_P1;SDS_P2;PMS_P1;PMS_P2;Temp;Humidity;BMP_temperature;BMP_pressure;BME280_temperature;BME280_humidity;BME280_pressure;Samples;Min_cycle;Max_cycle;Signal;HPM_P1;HPM_P2
2022/05/27 00:00:49;;;;;;;7.03;4.93;;;;;;;17.18;66.41;96874.44;5116374;28;20027;-64
2022/05/27 00:03:15;;;;;;;6.18;4.57;;;;;;;17.15;66.89;96868.47;5116535;28;20510;-60
2022/05/27 00:05:41;;;;;;;5.35;4.60;;;;;;;17.06;67.33;96872.47;5116476;28;20377;-63
2022/05/27 00:08:07;;;;;;;7.43;4.63;;;;;;;16.95;67.51;96870.50;5116382;27;20388;-62
2022/05/27 00:10:34;;;;;;;7.55;4.82;;;;;;;16.82;68.03;96867.69;5116255;28;20035;-60
2022/05/27 00:12:59;;;;;;;7.00;3.97;;;;;;;16.77;68.03;96861.84;5116292;28;20027;-62
2022/05/27 00:15:25;;;;;;;7.65;4.50;;;;;;;16.76;68.38;96862.75;5116383;28;20024;-61
2022/05/27 00:17:51;;;;;;;7.95;4.00;;;;;;;16.72;68.44;96871.81;5116191;28;20512;-61
2022/05/27 00:20:16;;;;;;;10.52;3.50;;;;;;;16.90;67.60;96869.91;5116089;28;20027;-63
2022/05/27 00:22:42;;;;;;;8.73;3.33;;;;;;;17.09;66.96;96871.47;5115944;28;20026;-64
2022/05/27 00:25:08;;;;;;;5.72;2.97;;;;;;;17.31;66.23;96863.13;5115948;28;20015;-61
2022/05/27 00:27:34;;;;;;;4.70;3.33;;;;;;;17.51;65.81;96864.56;5115898;28;20456;-61
2022/05/27 00:29:59;;;;;;;9.20;3.63;;;;;;;17.60;64.99;96862.28;5115940;27;20047;-61
2022/05/27 00:32:25;;;;;;;4.53;3.10;;;;;;;17.81;64.53;96860.09;5115762;28;20024;-61
2022/05/27 00:34:50;;;;;;;4.07;3.25;;;;;;;17.96;63.53;96854.78;5115917;28;20023;-62
2022/05/27 00:37:16;;;;;;;3.80;3.20;;;;;;;18.07;63.59;96860.28;5115809;28;20473;-61
2022/05/27 00:39:41;;;;;;;4.95;3.92;;;;;;;18.12;64.12;96850.25;5115557;28;20035;-64
2022/05/27 00:42:08;;;;;;;3.65;3.35;;;;;;;18.08;64.55;96854.03;5115813;28;20028;-64
2022/05/27 00:44:33;;;;;;;8.10;4.00;;;;;;;18.04;63.43;96856.03;5115571;28;20020;-62
2022/05/27 00:47:15;;;;;;;8.82;3.75;;;;;;;18.05;64.09;96855.06;5115487;28;20026;-62
2022/05/27 00:49:58;;;;;;;4.97;3.80;;;;;;;18.00;64.26;96838.63;5115324;28;20040;-60
2022/05/27 00:52:28;;;;;;;8.23;3.67;;;;;;;18.05;63.14;96846.28;5115543;28;20401;-60
2022/05/27 00:54:54;;;;;;;4.78;3.70;;;;;;;18.18;62.67;96839.28;5115684;28;20027;-61
2022/05/27 00:57:35;;;;;;;10.05;4.03;;;;;;;18.30;61.86;96839.41;5115442;28;20031;-61
2022/05/27 01:00:04;;;;;;;;;;;;;;;18.47;61.45;96843.63;5115628;28;20038;-64
2022/05/27 01:02:29;;;;;;;4.72;3.25;;;;;;;18.54;60.75;96839.63;5115312;28;19916;-63
2022/05/27 01:04:58;;;;;;;5.53;3.05;;;;;;;18.66;60.25;96842.44;5115218;28;20373;-63
2022/05/27 01:07:24;;;;;;;5.63;3.25;;;;;;;18.75;60.01;96833.84;5115259;28;20046;-64
2022/05/27 01:09:50;;;;;;;9.00;2.85;;;;;;;18.85;59.18;96838.53;5113876;28;20469;-64
2022/05/27 01:12:43;;;;;;;11.27;3.42;;;;;;;18.92;59.27;96837.19;5115105;27;20157;-62
2022/05/27 01:15:18;;;;;;;7.15;3.05;;;;;;;18.99;58.38;96841.09;5115122;28;20418;-60
2022/05/27 01:17:49;;;;;;;4.95;2.78;;;;;;;19.10;57.81;96837.78;5114976;28;20044;-61
2022/05/27 01:20:40;;;;;;;6.50;3.05;;;;;;;19.14;57.25;96833.13;5114930;28;20026;-60
2022/05/27 01:23:29;;;;;;;4.90;3.17;;;;;;;19.18;57.24;96831.94;5114838;28;20518;-60
2022/05/27 01:26:33;;;;;;;4.97;2.75;;;;;;;19.25;56.11;96837.66;5114937;28;20027;-61
2022/05/27 01:29:04;;;;;;;8.30;2.63;;;;;;;19.29;55.97;96837.34;5114771;28;20098;-63
2022/05/27 01:31:43;;;;;;;7.25;3.22;;;;;;;19.39;54.54;96832.25;5114743;28;20027;-61
2022/05/27 01:34:19;;;;;;;6.90;2.28;;;;;;;19.38;55.73;96832.38;5114654;28;20042;-64
2022/05/27 01:36:48;;;;;;;8.40;2.03;;;;;;;19.41;54.15;96830.34;5114638;28;20392;-62
2022/05/27 01:39:39;;;;;;;5.93;2.53;;;;;;;19.44;54.09;96830.13;5114401;28;20048;-60
2022/05/27 01:42:14;;;;;;;7.65;2.47;;;;;;;19.47;54.17;96826.41;5086624;28;20434;-60
2022/05/27 01:44:47;;;;;;;4.25;2.03;;;;;;;19.42;53.57;96817.94;5114527;28;20114;-63
2022/05/27 01:47:27;;;;;;;2.13;1.88;;;;;;;19.46;54.00;96819.44;5114424;28;20047;-59
2022/05/27 01:50:06;;;;;;;5.40;2.40;;;;;;;19.39;53.24;96820.81;5114181;28;20048;-62
2022/05/27 01:52:43;;;;;;;4.35;2.30;;;;;;;19.41;53.34;96814.44;5114383;28;20035;-64
2022/05/27 01:55:12;;;;;;;5.55;2.28;;;;;;;19.41;54.10;96816.22;5114456;28;20031;-61
2022/05/27 01:57:41;;;;;;;2.65;1.90;;;;;;;19.40;53.16;96817.19;5114214;28;20111;-61
2022/05/27 02:00:28;;;;;;;6.20;1.95;;;;;;;19.45;52.76;96821.22;5114042;28;20031;-62
2022/05/27 02:02:59;;;;;;;7.15;1.85;;;;;;;19.46;52.29;96824.72;5114050;28;20124;-64
2022/05/27 02:05:31;;;;;;;5.90;1.80;;;;;;;19.49;52.00;96827.16;5114199;28;20023;-60
2022/05/27 02:08:05;;;;;;;4.72;1.88;;;;;;;19.48;51.84;96832.59;5114322;28;20046;-61
2022/05/27 02:10:47;;;;;;;4.80;2.05;;;;;;;19.52;52.16;96823.44;5113733;28;20038;-60
2022/05/27 02:13:42;;;;;;;4.18;1.67;;;;;;;19.43;52.31;96816.97;5114060;28;20020;-63
2022/05/27 02:16:11;;;;;;;5.57;1.83;;;;;;;19.38;52.56;96819.94;5113751;28;20036;-62
2022/05/27 02:18:44;;;;;;;8.90;1.88;;;;;;;19.41;52.12;96824.19;5113955;28;20102;-63
2022/05/27 02:21:21;;;;;;;5.35;2.10;;;;;;;19.42;51.99;96818.78;5113904;28;20044;-61
2022/05/27 02:24:09;;;;;;;6.10;1.95;;;;;;;19.44;52.19;96829.28;5113831;28;20070;-61
2022/05/27 02:26:41;;;;;;;8.02;1.88;;;;;;;19.38;52.46;96822.59;5113713;28;20031;-62
2022/05/27 02:29:13;;;;;;;2.88;1.60;;;;;;;19.38;52.12;96819.94;5113825;28;20027;-61
2022/05/27 02:31:43;;;;;;;3.97;2.10;;;;;;;19.40;52.03;96819.84;5113799;28;20108;-61
2022/05/27 02:37:21;;;;;;;2.65;1.70;;;;;;;19.28;52.49;96827.72;5114007;28;20069;-60
2022/05/27 02:39:47;;;;;;;6.30;1.90;;;;;;;19.36;52.02;96829.84;5113562;28;20065;-62
2022/05/27 02:42:36;;;;;;;5.70;1.98;;;;;;;19.34;52.87;96826.44;5113615;28;20015;-64
2022/05/27 02:45:23;;;;;;;2.70;1.98;;;;;;;19.32;52.72;96826.53;5113735;28;20039;-64
2022/05/27 02:47:49;;;;;;;4.43;2.15;;;;;;;19.16;53.46;96832.06;5113548;28;20028;-61
2022/05/27 02:50:32;;;;;;;5.40;2.35;;;;;;;19.05;54.88;96829.22;5113294;28;20097;-61
2022/05/27 02:53:21;;;;;;;4.07;1.90;;;;;;;18.89;53.89;96824.13;5113756;28;20035;-63
2022/05/27 02:56:24;;;;;;;4.57;1.65;;;;;;;18.86;54.71;96824.34;5113485;28;20020;-63
2022/05/27 02:58:50;;;;;;;3.58;2.08;;;;;;;18.58;57.13;96826.19;5113332;28;20035;-65
2022/05/27 03:01:16;;;;;;;4.90;2.95;;;;;;;18.40;58.15;96829.97;5113330;28;20047;-62
2022/05/27 03:03:42;;;;;;;6.13;2.40;;;;;;;18.28;59.21;96836.03;5113438;28;20020;-60
2022/05/27 03:06:26;;;;;;;14.82;3.03;;;;;;;18.18;58.97;96827.81;5113471;28;20096;-63
2022/05/27 03:09:14;;;;;;;2.70;2.50;;;;;;;18.12;58.92;96828.25;5113335;28;20034;-60
2022/05/27 03:11:58;;;;;;;3.40;2.47;;;;;;;18.09;59.66;96834.53;5113253;28;20035;-64
2022/05/27 03:14:52;;;;;;;7.07;2.72;;;;;;;18.02;60.32;96834.09;5113278;28;20059;-64
2022/05/27 03:17:23;;;;;;;7.80;2.88;;;;;;;17.88;61.24;96840.25;5113245;28;20034;-61
2022/05/27 03:20:13;;;;;;;7.60;2.67;;;;;;;17.80;60.86;96845.19;5113358;28;20027;-64
2022/05/27 03:22:52;;;;;;;10.27;2.70;;;;;;;17.70;61.14;96847.53;5115840;28;20477;-62
2022/05/27 03:25:30;;;;;;;5.18;2.45;;;;;;;17.61;62.15;96846.31;5117146;28;20505;-63
2022/05/27 03:28:10;;;;;;;2.90;2.17;;;;;;;17.59;62.24;96848.22;5117257;28;20043;-61
2022/05/27 03:30:57;;;;;;;5.47;2.63;;;;;;;17.61;61.74;96845.47;5117276;28;20103;-60
2022/05/27 03:33:39;;;;;;;5.90;2.40;;;;;;;17.72;61.41;96835.06;5117097;28;20418;-62
2022/05/27 03:36:28;;;;;;;3.70;2.40;;;;;;;17.93;62.00;96837.31;5117067;28;20102;-60
2022/05/27 03:39:08;;;;;;;2.78;2.15;;;;;;;18.21;61.94;96829.44;5117042;28;20030;-61
2022/05/27 03:41:38;;;;;;;4.63;2.50;;;;;;;18.46;60.88;96838.44;5117162;28;20040;-63
2022/05/27 03:44:06;;;;;;;4.28;2.20;;;;;;;18.66;59.42;96839.78;5117046;28;20042;-63
2022/05/27 03:46:35;;;;;;;2.22;1.88;;;;;;;18.86;58.19;96838.44;5116748;27;20499;-64
2022/05/27 03:49:02;;;;;;;4.68;2.20;;;;;;;19.10;58.06;96835.13;5116358;28;20020;-64
2022/05/27 03:51:38;;;;;;;4.35;2.10;;;;;;;19.49;58.04;96837.78;5116658;28;20062;-62
2022/05/27 03:54:10;;;;;;;3.58;1.90;;;;;;;19.91;56.92;96844.63;5115456;28;20080;-60
2022/05/27 03:56:39;;;;;;;3.40;1.80;;;;;;;20.19;55.66;96847.97;5116802;28;20023;-64
2022/05/27 03:59:07;;;;;;;3.42;1.63;;;;;;;20.45;54.99;96840.78;5116480;28;20501;-61
2022/05/27 04:01:35;;;;;;;2.25;2.00;;;;;;;20.56;54.66;96845.28;5116420;28;20023;-64
2022/05/27 04:04:04;;;;;;;2.78;1.90;;;;;;;20.80;55.00;96847.06;5116430;28;20058;-63
2022/05/27 04:06:30;;;;;;;4.40;1.88;;;;;;;21.08;54.90;96857.47;5116450;28;20076;-62
2022/05/27 04:08:59;;;;;;;6.53;1.65;;;;;;;21.34;53.93;96858.13;5116356;28;20047;-63
2022/05/27 04:11:30;;;;;;;2.50;2.25;;;;;;;21.70;52.60;96847.38;5116425;28;20481;-64
2022/05/27 04:13:56;;;;;;;7.95;2.03;;;;;;;21.98;51.81;96851.50;5116192;28;20061;-62
2022/05/27 04:16:22;;;;;;;2.80;1.80;;;;;;;22.27;51.50;96853.66;5116124;28;20106;-63
2022/05/27 04:18:48;;;;;;;4.45;1.90;;;;;;;22.51;51.39;96844.63;5116170;28;20023;-60
2022/05/27 04:21:14;;;;;;;4.68;1.90;;;;;;;22.81;51.05;96851.94;5116259;28;20026;-63
2022/05/27 04:23:39;;;;;;;3.83;1.85;;;;;;;23.02;49.26;96853.78;5116066;28;20401;-63
2022/05/27 04:26:06;;;;;;;7.35;2.17;;;;;;;23.29;50.15;96855.06;5115906;28;20034;-63
2022/05/27 04:28:33;;;;;;;2.80;1.40;;;;;;;23.59;49.35;96861.47;5115953;28;20170;-63
2022/05/27 04:31:00;;;;;;;4.50;1.92;;;;;;;23.88;48.42;96857.22;5115952;28;20058;-62
2022/05/27 04:33:27;;;;;;;3.58;1.67;;;;;;;24.21;49.44;96857.94;5114347;28;20490;-61
2022/05/27 04:35:57;;;;;;;6.30;1.67;;;;;;;24.54;47.89;96852.38;5115727;28;20031;-62
2022/05/27 04:38:23;;;;;;;4.82;1.67;;;;;;;24.77;46.60;96860.09;5115879;28;20361;-60
2022/05/27 04:40:49;;;;;;;4.82;1.85;;;;;;;25.05;45.34;96865.63;5115599;28;20053;-61
2022/05/27 04:43:15;;;;;;;7.13;2.30;;;;;;;25.00;44.63;96862.53;5115651;28;20407;-63
2022/05/27 04:45:41;;;;;;;3.40;2.30;;;;;;;25.21;45.66;96862.38;5115706;28;20039;-60
2022/05/27 04:48:07;;;;;;;3.67;1.98;;;;;;;25.42;45.75;96872.06;5115638;28;20028;-60
2022/05/27 04:50:33;;;;;;;3.85;1.90;;;;;;;25.69;44.72;96870.47;5115502;28;20136;-62
2022/05/27 04:52:59;;;;;;;2.97;1.70;;;;;;;25.94;44.63;96873.47;5115693;28;20016;-60
2022/05/27 04:55:26;;;;;;;8.10;2.08;;;;;;;26.21;42.46;96871.78;5115450;28;20077;-62
2022/05/27 04:57:54;;;;;;;5.95;2.35;;;;;;;26.48;40.85;96866.56;5115408;28;20381;-61
2022/05/27 05:00:37;;;;;;;6.00;2.42;;;;;;;26.77;41.10;96864.69;5115154;28;20047;-60
2022/05/27 05:03:04;;;;;;;5.78;2.15;;;;;;;27.10;41.56;96871.22;5115174;28;20389;-62
2022/05/27 05:05:31;;;;;;;5.43;2.10;;;;;;;27.24;39.15;96866.31;5115276;28;20026;-60
2022/05/27 05:08:01;;;;;;;3.40;2.30;;;;;;;27.34;38.30;96871.56;5115356;28;20365;-60
2022/05/27 05:10:27;;;;;;;6.07;2.00;;;;;;;27.48;40.33;96872.84;5115337;28;20024;-62
2022/05/27 05:12:53;;;;;;;6.10;2.15;;;;;;;27.66;40.15;96875.47;5115092;28;20396;-61
2022/05/27 05:15:21;;;;;;;5.50;1.95;;;;;;;27.87;38.84;96869.72;5115086;28;20023;-60
2022/05/27 05:17:46;;;;;;;7.43;2.10;;;;;;;28.07;38.70;96872.19;5115054;28;20023;-62
2022/05/27 05:20:15;;;;;;;4.15;1.73;;;;;;;28.33;38.72;96873.13;5114866;28;20033;-62
2022/05/27 05:22:42;;;;;;;3.28;1.92;;;;;;;28.59;39.18;96877.59;5115038;28;20024;-60
2022/05/27 05:25:09;;;;;;;6.80;2.63;;;;;;;28.83;38.32;96875.94;5114843;28;20039;-62
2022/05/27 05:27:38;;;;;;;5.10;2.10;;;;;;;28.93;38.42;96873.09;5114843;28;20495;-61
2022/05/27 05:30:06;;;;;;;4.40;1.88;;;;;;;29.10;36.52;96866.72;5114765;28;20031;-60
2022/05/27 05:32:32;;;;;;;8.38;2.00;;;;;;;29.31;35.38;96870.75;5114674;28;20115;-63
2022/05/27 05:34:59;;;;;;;5.63;1.85;;;;;;;29.47;35.37;96875.28;5114687;28;20058;-62
2022/05/27 05:37:26;;;;;;;5.25;1.95;;;;;;;29.60;35.53;96866.72;5114506;28;20035;-60
2022/05/27 05:39:51;;;;;;;9.45;1.98;;;;;;;29.73;35.51;96873.41;5114559;28;20232;-60
2022/05/27 05:42:17;;;;;;;1.80;1.58;;;;;;;29.82;36.72;96876.91;5114495;28;20078;-60
2022/05/27 05:44:43;;;;;;;4.82;1.65;;;;;;;29.81;36.26;96872.56;5113765;28;20430;-61
2022/05/27 05:47:09;;;;;;;2.55;1.80;;;;;;;29.94;36.55;96867.44;5114461;28;20043;-62
2022/05/27 05:49:35;;;;;;;4.32;1.85;;;;;;;29.76;34.09;96879.31;5114109;27;20043;-61
2022/05/27 05:52:01;;;;;;;1.90;1.48;;;;;;;29.89;35.28;96870.66;5114272;28;20080;-60
2022/05/27 05:54:28;;;;;;;6.85;1.90;;;;;;;30.15;33.52;96879.50;5114314;28;20047;-62
2022/05/27 05:56:55;;;;;;;3.95;1.60;;;;;;;30.39;34.82;96884.00;5114271;28;20388;-61
2022/05/27 05:59:22;;;;;;;4.53;1.45;;;;;;;30.58;34.64;96876.44;5114337;28;20063;-61
2022/05/27 06:01:48;;;;;;;3.88;1.60;;;;;;;30.57;33.71;96872.09;5114232;28;20495;-62
2022/05/27 06:04:14;;;;;;;5.50;1.92;;;;;;;30.46;34.03;96880.59;5114062;28;20044;-61
2022/05/27 06:06:40;;;;;;;5.28;1.58;;;;;;;30.44;33.67;96875.38;5114020;28;20055;-61
2022/05/27 06:09:07;;;;;;;3.10;1.50;;;;;;;30.51;33.62;96881.72;5114066;28;20027;-61
2022/05/27 06:11:36;;;;;;;2.55;1.38;;;;;;;30.61;29.88;96878.78;5114056;28;20028;-61
2022/05/27 06:14:03;;;;;;;3.50;1.65;;;;;;;30.60;29.97;96876.28;5114046;28;20078;-61
2022/05/27 06:16:29;;;;;;;5.13;1.58;;;;;;;30.44;28.40;96877.22;5113900;28;20034;-62
2022/05/27 06:18:54;;;;;;;3.80;1.52;;;;;;;30.33;32.21;96873.91;5113751;28;20426;-62
2022/05/27 06:21:20;;;;;;;8.30;1.55;;;;;;;30.29;31.39;96882.50;5114039;28;20023;-60
2022/05/27 06:23:46;;;;;;;6.60;1.60;;;;;;;30.29;32.09;96875.28;5113903;28;20016;-62
2022/05/27 06:26:12;;;;;;;3.35;1.45;;;;;;;30.63;32.27;96882.16;5113818;28;20376;-62
2022/05/27 06:34:26;;;;;;;6.68;1.70;;;;;;;31.37;30.20;96880.00;5114061;28;20500;-60
2022/05/27 06:36:53;;;;;;;3.75;1.40;;;;;;;31.14;28.49;96880.84;5113760;28;20024;-61
2022/05/27 06:39:19;;;;;;;3.03;1.45;;;;;;;30.70;28.24;96884.97;5113525;28;20046;-62
2022/05/27 06:41:45;;;;;;;6.38;1.23;;;;;;;30.74;29.18;96874.69;5113530;28;20119;-61
2022/05/27 06:44:10;;;;;;;3.17;1.10;;;;;;;30.93;30.52;96881.50;5113533;28;20020;-61
2022/05/27 06:46:36;;;;;;;5.70;1.48;;;;;;;31.01;29.03;96875.19;5113564;28;20024;-61
2022/05/27 06:49:04;;;;;;;3.80;1.42;;;;;;;31.13;29.98;96878.31;5113270;28;20388;-60
2022/05/27 06:51:29;;;;;;;3.55;1.50;;;;;;;31.23;29.79;96878.03;5113644;28;20528;-60
2022/05/27 06:54:05;;;;;;;3.42;1.30;;;;;;;30.79;30.48;96871.47;5113463;28;20028;-60
2022/05/27 06:56:35;;;;;;;4.53;1.52;;;;;;;30.50;27.35;96871.13;5115971;28;20031;-62
2022/05/27 06:59:04;;;;;;;3.88;1.30;;;;;;;30.76;29.26;96873.50;5117492;27;20024;-61
2022/05/27 07:01:30;;;;;;;4.60;1.20;;;;;;;30.94;26.74;96871.53;5117628;28;20024;-62
2022/05/27 07:03:57;;;;;;;3.42;1.40;;;;;;;31.00;25.92;96871.66;5117773;28;20030;-60
2022/05/27 07:06:25;;;;;;;5.05;1.33;;;;;;;31.44;27.01;96879.25;5117511;28;20054;-60
2022/05/27 07:08:51;;;;;;;2.25;1.33;;;;;;;31.52;26.75;96863.78;5117593;28;20016;-63
2022/05/27 07:11:17;;;;;;;3.22;1.60;;;;;;;31.69;28.92;96869.03;5117531;27;20022;-61
2022/05/27 07:13:42;;;;;;;2.88;1.27;;;;;;;31.82;26.83;96856.72;5116331;28;20016;-61
2022/05/27 07:16:08;;;;;;;1.95;1.55;;;;;;;31.86;27.67;96863.44;5117337;28;20028;-61
2022/05/27 07:18:34;;;;;;;3.47;1.65;;;;;;;31.95;26.96;96859.66;5117293;28;20102;-61
2022/05/27 07:21:05;;;;;;;2.13;1.50;;;;;;;32.15;27.25;96859.09;5117264;28;20114;-61
2022/05/27 07:23:32;;;;;;;3.70;1.42;;;;;;;32.05;27.01;96858.53;5116018;28;20472;-60
2022/05/27 07:25:58;;;;;;;4.47;1.38;;;;;;;31.83;26.11;96861.94;5117399;28;20077;-62
2022/05/27 07:28:25;;;;;;;4.47;1.75;;;;;;;31.38;26.39;96854.66;5117041;28;20541;-60
2022/05/27 07:30:51;;;;;;;6.10;1.60;;;;;;;31.15;27.26;96847.38;5117068;28;20500;-61
2022/05/27 07:33:17;;;;;;;2.75;1.42;;;;;;;31.10;28.32;96849.81;5117126;28;20089;-62
2022/05/27 07:35:43;;;;;;;2.53;1.55;;;;;;;31.21;27.36;96843.13;5116035;28;20035;-61
2022/05/27 07:38:09;;;;;;;3.70;1.40;;;;;;;30.90;27.52;96852.16;5116987;28;20095;-62
2022/05/27 07:40:34;;;;;;;3.60;1.70;;;;;;;31.09;27.36;96852.69;5116865;28;20027;-60
2022/05/27 07:43:00;;;;;;;2.00;1.40;;;;;;;31.13;28.13;96844.06;5116907;28;20027;-63
2022/05/27 07:45:29;;;;;;;2.25;1.67;;;;;;;31.01;27.68;96851.75;5116846;28;20035;-62
2022/05/27 07:47:56;;;;;;;4.20;1.23;;;;;;;31.26;26.93;96851.53;5116759;28;20418;-61
2022/05/27 07:50:22;;;;;;;5.38;1.50;;;;;;;31.42;25.95;96849.69;5116654;28;20070;-62
2022/05/27 07:52:49;;;;;;;2.30;1.35;;;;;;;31.47;24.72;96838.34;5116697;28;20028;-62
2022/05/27 07:55:15;;;;;;;2.20;1.20;;;;;;;31.48;25.52;96838.16;5116813;28;20024;-61
2022/05/27 07:57:43;;;;;;;2.92;1.48;;;;;;;31.32;25.42;96836.44;5116595;28;20024;-61
2022/05/27 08:00:12;;;;;;;5.30;2.00;;;;;;;31.24;26.94;96839.22;5116365;27;20114;-61
2022/05/27 08:02:39;;;;;;;2.97;1.40;;;;;;;31.51;25.92;96832.38;5116539;28;20031;-62
2022/05/27 08:05:05;;;;;;;5.15;1.52;;;;;;;31.80;26.28;96843.41;5116581;28;20103;-62
2022/05/27 08:07:30;;;;;;;4.93;1.73;;;;;;;31.94;26.49;96833.66;5115801;28;20024;-61
2022/05/27 08:09:56;;;;;;;10.02;1.55;;;;;;;31.45;26.22;96829.59;5116410;28;20026;-62
2022/05/27 08:12:21;;;;;;;7.22;1.58;;;;;;;31.32;27.27;96841.00;5116328;28;20508;-61
2022/05/27 08:14:48;;;;;;;4.40;2.03;;;;;;;30.94;27.70;96836.44;5116326;28;20032;-62
2022/05/27 08:17:13;;;;;;;3.00;1.48;;;;;;;31.08;26.82;96837.50;5116289;28;20024;-62
2022/05/27 08:19:39;;;;;;;4.75;1.52;;;;;;;31.15;27.29;96824.94;5116112;28;20465;-61
2022/05/27 08:22:05;;;;;;;4.63;1.48;;;;;;;31.52;27.97;96827.84;5116251;27;20024;-63
2022/05/27 08:24:30;;;;;;;3.00;1.58;;;;;;;31.65;26.24;96827.19;5116022;28;20481;-61
2022/05/27 08:26:56;;;;;;;6.43;1.92;;;;;;;31.78;26.34;96826.50;5116099;28;20401;-62
2022/05/27 08:29:22;;;;;;;2.60;1.75;;;;;;;31.96;27.07;96820.75;5116057;28;20118;-63
2022/05/27 08:31:48;;;;;;;2.03;1.52;;;;;;;32.05;27.99;96824.19;5115880;28;20381;-63
2022/05/27 08:39:47;;;;;;;6.82;1.55;;;;;;;32.25;27.36;96815.50;5115983;28;20038;-62
2022/05/27 08:42:45;;;;;;;3.20;1.30;;;;;;;32.41;28.00;96814.41;5115889;28;20145;-61
2022/05/27 08:45:19;;;;;;;4.80;1.42;;;;;;;32.47;27.04;96807.41;5060538;28;20041;-61
2022/05/27 08:47:50;;;;;;;7.28;1.80;;;;;;;32.33;27.81;96807.28;5115685;28;20055;-61
2022/05/27 08:50:31;;;;;;;2.72;2.05;;;;;;;32.49;29.44;96808.09;5115499;28;20048;-63
2022/05/27 08:53:03;;;;;;;6.10;1.67;;;;;;;32.46;26.99;96803.88;5115604;28;20031;-63
2022/05/27 09:01:36;;;;;;;4.13;1.52;;;;;;;32.72;27.34;96798.94;5087533;28;20503;-63
2022/05/27 09:04:17;;;;;;;6.80;2.03;;;;;;;32.68;26.97;96801.19;5115416;28;20046;-62
2022/05/27 09:06:57;;;;;;;7.28;1.95;;;;;;;32.67;26.36;96795.97;5115351;28;20028;-63
2022/05/27 09:09:25;;;;;;;2.40;1.63;;;;;;;32.38;27.20;96795.84;5115314;28;20388;-61
2022/05/27 09:12:09;;;;;;;3.25;1.67;;;;;;;32.42;25.77;96785.50;5115093;28;20330;-63
2022/05/27 09:14:40;;;;;;;2.47;1.35;;;;;;;32.15;27.68;96784.16;5115140;28;20027;-62
2022/05/27 09:17:11;;;;;;;4.15;1.50;;;;;;;32.04;28.16;96790.06;5115207;28;20126;-64
2022/05/27 09:19:39;;;;;;;4.38;1.85;;;;;;;32.06;26.77;96787.19;5113867;28;20027;-62
2022/05/27 09:22:13;;;;;;;1.77;1.40;;;;;;;31.81;27.38;96788.28;5114860;28;20110;-61
2022/05/27 09:25:36;;;;;;;6.20;1.38;;;;;;;31.64;27.50;96776.88;5115021;28;20027;-61
2022/05/27 09:28:17;;;;;;;4.45;1.73;;;;;;;31.37;27.48;96781.88;5052288;28;20033;-61
2022/05/27 09:30:43;;;;;;;6.07;1.55;;;;;;;30.75;28.79;96780.03;5052124;28;20039;-61
2022/05/27 09:33:16;;;;;;;3.00;1.63;;;;;;;30.36;28.01;96772.91;5095616;27;20126;-63
2022/05/27 09:36:03;;;;;;;4.38;1.70;;;;;;;30.14;29.94;96776.22;5114594;28;20067;-62
2022/05/27 09:38:34;;;;;;;3.88;1.73;;;;;;;30.03;27.95;96771.19;5114667;28;20020;-63
2022/05/27 09:41:11;;;;;;;5.88;1.77;;;;;;;30.11;27.59;96763.09;5114533;28;20468;-63
2022/05/27 09:43:49;;;;;;;2.38;1.45;;;;;;;30.09;27.49;96757.03;5114559;28;20062;-63
2022/05/27 09:46:28;;;;;;;3.25;1.50;;;;;;;30.18;27.98;96759.69;5114489;28;20024;-61
2022/05/27 09:48:58;;;;;;;5.78;1.98;;;;;;;30.22;29.45;96755.63;5114200;28;20032;-63
2022/05/27 09:51:26;;;;;;;2.13;1.50;;;;;;;30.51;30.63;96763.03;5114449;28;20020;-62
2022/05/27 09:53:56;;;;;;;6.63;1.50;;;;;;;30.96;28.01;96756.09;5114591;28;20015;-61
2022/05/27 09:56:59;;;;;;;3.30;1.42;;;;;;;31.08;26.96;96753.78;5114320;28;20020;-63
2022/05/27 09:59:40;;;;;;;6.45;1.23;;;;;;;31.28;27.71;96746.81;5104029;28;20423;-63
2022/05/27 10:02:25;;;;;;;6.10;1.30;;;;;;;31.45;27.31;96748.56;5114382;28;20035;-63
2022/05/27 10:05:05;;;;;;;2.80;1.60;;;;;;;31.45;27.39;96735.84;5114213;28;20445;-63
2022/05/27 10:07:32;;;;;;;4.17;1.43;;;;;;;31.45;29.40;96732.34;5114218;28;20100;-63
2022/05/27 10:10:26;;;;;;;6.18;1.80;;;;;;;31.62;26.28;96731.09;5114035;28;20425;-61
2022/05/27 10:12:53;;;;;;;3.15;1.42;;;;;;;31.82;26.77;96733.22;5114266;28;20121;-61
2022/05/27 10:15:38;;;;;;;2.63;1.40;;;;;;;31.92;26.40;96726.66;5113975;28;20077;-63
2022/05/27 10:18:29;;;;;;;6.30;1.13;;;;;;;32.08;27.23;96731.88;5114056;28;20078;-63
2022/05/27 10:21:14;;;;;;;3.35;1.48;;;;;;;32.06;28.42;96727.69;5110734;28;20489;-62
2022/05/27 10:23:43;;;;;;;8.00;1.63;;;;;;;32.15;28.72;96726.56;5113905;28;20028;-61
2022/05/27 10:26:30;;;;;;;2.15;1.42;;;;;;;32.14;26.93;96728.41;5113696;28;20032;-61
2022/05/27 10:29:06;;;;;;;6.55;1.60;;;;;;;31.82;25.42;96722.41;5113865;28;20091;-61
2022/05/27 10:31:33;;;;;;;5.00;1.60;;;;;;;31.34;27.13;96720.94;5113407;28;20042;-62
2022/05/27 10:34:00;;;;;;;3.92;1.38;;;;;;;31.14;27.50;96715.25;5113636;28;20023;-62
2022/05/27 10:36:37;;;;;;;5.10;1.88;;;;;;;31.24;28.81;96717.69;5113687;28;20076;-63
2022/05/27 10:39:23;;;;;;;4.35;1.77;;;;;;;31.20;27.23;96706.41;5113860;28;20031;-62
2022/05/27 10:42:15;;;;;;;1.50;1.13;;;;;;;31.13;28.40;96710.88;5113190;28;20052;-63
2022/05/27 10:44:59;;;;;;;3.17;1.35;;;;;;;31.18;27.15;96711.13;5113683;28;20040;-60
2022/05/27 10:47:42;;;;;;;3.20;1.40;;;;;;;31.16;27.58;96705.09;5113543;28;20392;-63
2022/05/27 10:50:20;;;;;;;2.17;1.40;;;;;;;31.10;26.35;96700.44;5113269;28;20059;-62
2022/05/27 10:53:16;;;;;;;6.20;1.40;;;;;;;31.24;27.23;96693.38;5113473;28;20429;-61
2022/05/27 10:56:03;;;;;;;4.20;1.77;;;;;;;31.07;27.73;96700.81;5113449;28;20502;-61
2022/05/27 11:02:05;;;;;;;5.68;1.48;;;;;;;30.95;27.65;96676.13;5113855;28;20046;-62
2022/05/27 11:04:42;;;;;;;4.47;1.30;;;;;;;30.94;27.20;96675.28;5113536;28;20062;-60
2022/05/27 11:07:14;;;;;;;3.63;1.60;;;;;;;31.02;29.02;96672.50;5113527;28;20093;-61
2022/05/27 11:09:58;;;;;;;5.28;1.60;;;;;;;31.15;28.05;96671.84;5113458;28;20107;-61
2022/05/27 11:16:26;;;;;;;6.43;1.42;;;;;;;31.45;25.98;96670.19;5113459;28;20050;-62
2022/05/27 11:19:07;;;;;;;2.72;1.67;;;;;;;31.43;28.82;96664.97;5113297;28;20023;-60
2022/05/27 11:21:46;;;;;;;3.40;1.50;;;;;;;31.49;27.99;96661.53;5113264;28;20034;-63
2022/05/27 11:24:30;;;;;;;5.68;1.60;;;;;;;31.36;27.65;96650.56;5113297;28;20470;-60
2022/05/27 11:27:07;;;;;;;3.03;1.42;;;;;;;31.31;27.39;96653.78;5113267;28;20084;-60
2022/05/27 11:29:47;;;;;;;7.78;1.70;;;;;;;31.37;28.49;96654.91;5113251;28;20519;-61
2022/05/27 11:32:29;;;;;;;4.53;1.40;;;;;;;31.47;28.16;96658.16;5113114;28;20434;-60
2022/05/27 11:35:19;;;;;;;5.38;2.00;;;;;;;31.45;26.73;96657.50;5113167;28;20354;-63
2022/05/27 11:38:01;;;;;;;2.73;1.67;;;;;;;31.26;26.47;96645.41;5113185;28;20077;-63
2022/05/27 11:40:36;;;;;;;2.30;1.60;;;;;;;31.28;28.18;96654.97;5113106;28;20131;-61
2022/05/27 11:43:11;;;;;;;3.90;1.63;;;;;;;31.35;28.34;96641.59;5114550;28;20027;-63
2022/05/27 11:45:46;;;;;;;4.32;1.50;;;;;;;31.29;28.54;96645.03;5116791;27;20023;-62
2022/05/27 11:48:33;;;;;;;8.75;1.60;;;;;;;31.52;28.89;96644.91;5116946;28;20039;-63
2022/05/27 11:51:05;;;;;;;4.40;1.65;;;;;;;31.39;26.80;96642.03;5116613;28;20044;-61
2022/05/27 11:54:01;;;;;;;3.97;1.40;;;;;;;31.35;26.78;96643.47;5116766;27;20378;-63
2022/05/27 11:56:33;;;;;;;2.22;1.48;;;;;;;31.37;26.39;96639.56;5116560;28;20070;-62
2022/05/27 11:58:59;;;;;;;2.92;1.65;;;;;;;31.34;27.18;96639.91;5116632;27;20020;-63
2022/05/27 12:01:37;;;;;;;7.63;1.63;;;;;;;31.26;26.84;96635.44;5116587;28;20039;-61
2022/05/27 12:04:30;;;;;;;3.60;1.42;;;;;;;31.10;27.52;96630.22;5116393;28;20035;-63
2022/05/27 12:07:23;;;;;;;5.20;1.25;;;;;;;30.70;27.26;96627.78;5116477;28;20088;-62
2022/05/27 12:10:09;;;;;;;3.92;1.45;;;;;;;30.81;27.37;96618.41;5116458;28;20104;-61
2022/05/27 12:12:44;;;;;;;3.38;2.08;;;;;;;30.71;29.52;96622.19;5115714;28;20027;-61
2022/05/27 12:15:30;;;;;;;2.05;1.50;;;;;;;30.76;28.85;96613.59;5116330;28;20031;-61
2022/05/27 12:17:57;;;;;;;3.75;1.77;;;;;;;30.86;28.30;96611.44;5116385;28;20102;-62
2022/05/27 12:20:32;;;;;;;2.72;1.38;;;;;;;30.86;27.63;96616.00;5116072;28;20131;-60
2022/05/27 12:23:02;;;;;;;1.90;1.30;;;;;;;30.74;27.49;96611.03;5116124;28;20031;-62
2022/05/27 12:25:32;;;;;;;2.90;1.30;;;;;;;30.76;27.21;96606.31;5116152;28;20077;-62
2022/05/27 12:28:00;;;;;;;2.30;1.10;;;;;;;30.76;26.13;96603.59;5116099;28;20038;-61